Hirtshals, Denmark
Current Conditions -  °F | °C
As of 3:20 AM on Saturday 29 Nov 2014 (Local Time) from EKYT Reporting Station
Broken Clouds Broken Clouds  
Wind Chill: 34°   Ceiling: 2500
Heat Index: 41°   Visibility: 6mi
Dew Point: 34°   Wind: 13mph
Humidity: 76%   Direction: 110°ESE
Pressure: 30.3"   Gusts: NA
Location:  57.59°N, 9.96°E
Report Text: EKYT 290220Z 11011KT 9999 BKN025 05/01 Q1026
Loading
Personal Weather Stations






























Interactive Weather Map New forecast layout! Learn more

10-Day Weather Forecast

Advertisements
Track Severe Weather on mobile